sensor_id;sensor_type;location;lat;lon;timestamp;P1;durP1;ratioP1;P2;durP2;ratioP2
47483;SDS011;54076;50.322;18.650;2023-07-31T00:00:32;7.40;;;2.90;;
47483;SDS011;54076;50.322;18.650;2023-07-31T00:05:33;6.40;;;3.20;;
47483;SDS011;54076;50.322;18.650;2023-07-31T00:10:34;6.80;;;2.60;;
47483;SDS011;54076;50.322;18.650;2023-07-31T00:15:35;8.10;;;3.10;;
47483;SDS011;54076;50.322;18.650;2023-07-31T00:20:36;6.30;;;2.50;;
47483;SDS011;54076;50.322;18.650;2023-07-31T00:25:37;6.40;;;2.80;;
47483;SDS011;54076;50.322;18.650;2023-07-31T00:30:39;5.40;;;2.70;;
47483;SDS011;54076;50.322;18.650;2023-07-31T00:35:40;6.20;;;2.80;;
47483;SDS011;54076;50.322;18.650;2023-07-31T00:40:41;6.70;;;2.50;;
47483;SDS011;54076;50.322;18.650;2023-07-31T00:45:42;5.40;;;2.40;;
47483;SDS011;54076;50.322;18.650;2023-07-31T00:50:43;6.90;;;2.40;;
47483;SDS011;54076;50.322;18.650;2023-07-31T00:55:43;7.00;;;2.50;;
47483;SDS011;54076;50.322;18.650;2023-07-31T01:00:45;4.40;;;1.80;;
47483;SDS011;54076;50.322;18.650;2023-07-31T01:05:59;6.90;;;2.00;;
47483;SDS011;54076;50.322;18.650;2023-07-31T01:11:38;5.90;;;1.90;;
47483;SDS011;54076;50.322;18.650;2023-07-31T01:16:47;5.60;;;2.20;;
47483;SDS011;54076;50.322;18.650;2023-07-31T01:22:16;6.20;;;1.90;;
47483;SDS011;54076;50.322;18.650;2023-07-31T01:27:34;4.40;;;1.90;;
47483;SDS011;54076;50.322;18.650;2023-07-31T01:32:39;4.10;;;1.80;;
47483;SDS011;54076;50.322;18.650;2023-07-31T01:37:41;3.80;;;1.50;;
47483;SDS011;54076;50.322;18.650;2023-07-31T01:42:42;5.70;;;2.00;;
47483;SDS011;54076;50.322;18.650;2023-07-31T01:47:43;3.80;;;1.60;;
47483;SDS011;54076;50.322;18.650;2023-07-31T01:52:44;4.30;;;1.60;;
47483;SDS011;54076;50.322;18.650;2023-07-31T01:57:45;3.50;;;1.60;;
47483;SDS011;54076;50.322;18.650;2023-07-31T02:02:45;4.70;;;1.70;;
47483;SDS011;54076;50.322;18.650;2023-07-31T02:07:46;6.40;;;1.50;;
47483;SDS011;54076;50.322;18.650;2023-07-31T02:12:48;3.70;;;1.60;;
47483;SDS011;54076;50.322;18.650;2023-07-31T02:17:49;4.10;;;1.50;;
47483;SDS011;54076;50.322;18.650;2023-07-31T02:22:49;3.70;;;1.60;;
47483;SDS011;54076;50.322;18.650;2023-07-31T02:27:50;3.80;;;1.50;;
47483;SDS011;54076;50.322;18.650;2023-07-31T02:32:51;5.50;;;1.50;;
47483;SDS011;54076;50.322;18.650;2023-07-31T02:37:52;3.20;;;1.50;;
47483;SDS011;54076;50.322;18.650;2023-07-31T02:42:53;4.60;;;2.00;;
47483;SDS011;54076;50.322;18.650;2023-07-31T02:47:54;3.80;;;1.60;;
47483;SDS011;54076;50.322;18.650;2023-07-31T02:52:55;7.50;;;2.00;;
47483;SDS011;54076;50.322;18.650;2023-07-31T02:57:55;4.50;;;1.60;;
47483;SDS011;54076;50.322;18.650;2023-07-31T03:02:56;5.00;;;1.50;;
47483;SDS011;54076;50.322;18.650;2023-07-31T03:07:57;4.80;;;1.60;;
47483;SDS011;54076;50.322;18.650;2023-07-31T03:12:58;4.10;;;1.60;;
47483;SDS011;54076;50.322;18.650;2023-07-31T03:17:59;4.90;;;1.30;;
47483;SDS011;54076;50.322;18.650;2023-07-31T03:23:00;5.30;;;1.60;;
47483;SDS011;54076;50.322;18.650;2023-07-31T03:28:01;3.90;;;1.60;;
47483;SDS011;54076;50.322;18.650;2023-07-31T03:33:02;3.90;;;1.50;;
47483;SDS011;54076;50.322;18.650;2023-07-31T03:38:03;4.90;;;1.80;;
47483;SDS011;54076;50.322;18.650;2023-07-31T03:43:05;5.10;;;1.70;;
47483;SDS011;54076;50.322;18.650;2023-07-31T03:48:06;4.80;;;1.50;;
47483;SDS011;54076;50.322;18.650;2023-07-31T03:53:08;8.10;;;1.60;;
47483;SDS011;54076;50.322;18.650;2023-07-31T03:58:09;5.00;;;1.70;;
47483;SDS011;54076;50.322;18.650;2023-07-31T04:03:10;4.60;;;1.60;;
47483;SDS011;54076;50.322;18.650;2023-07-31T04:08:10;4.00;;;1.90;;
47483;SDS011;54076;50.322;18.650;2023-07-31T04:13:11;3.80;;;1.60;;
47483;SDS011;54076;50.322;18.650;2023-07-31T04:18:12;5.40;;;1.70;;
47483;SDS011;54076;50.322;18.650;2023-07-31T04:23:13;8.10;;;1.90;;
47483;SDS011;54076;50.322;18.650;2023-07-31T04:28:14;6.10;;;1.80;;
47483;SDS011;54076;50.322;18.650;2023-07-31T04:33:15;4.80;;;2.50;;
47483;SDS011;54076;50.322;18.650;2023-07-31T04:38:16;4.20;;;1.70;;
47483;SDS011;54076;50.322;18.650;2023-07-31T04:43:16;6.30;;;1.80;;
47483;SDS011;54076;50.322;18.650;2023-07-31T04:48:17;9.30;;;1.70;;
47483;SDS011;54076;50.322;18.650;2023-07-31T04:53:18;5.80;;;1.80;;
47483;SDS011;54076;50.322;18.650;2023-07-31T04:58:19;5.30;;;1.70;;
47483;SDS011;54076;50.322;18.650;2023-07-31T05:03:20;4.80;;;2.10;;
47483;SDS011;54076;50.322;18.650;2023-07-31T05:08:21;5.00;;;1.90;;
47483;SDS011;54076;50.322;18.650;2023-07-31T05:13:22;6.50;;;1.90;;
47483;SDS011;54076;50.322;18.650;2023-07-31T05:18:23;5.80;;;1.50;;
47483;SDS011;54076;50.322;18.650;2023-07-31T05:23:24;3.50;;;1.40;;
47483;SDS011;54076;50.322;18.650;2023-07-31T05:28:24;9.80;;;1.80;;
47483;SDS011;54076;50.322;18.650;2023-07-31T05:33:25;4.90;;;1.70;;
47483;SDS011;54076;50.322;18.650;2023-07-31T05:38:26;6.10;;;1.90;;
47483;SDS011;54076;50.322;18.650;2023-07-31T05:43:27;6.40;;;1.60;;
47483;SDS011;54076;50.322;18.650;2023-07-31T05:48:28;5.70;;;1.40;;
47483;SDS011;54076;50.322;18.650;2023-07-31T05:53:29;4.10;;;1.40;;
47483;SDS011;54076;50.322;18.650;2023-07-31T05:58:30;3.80;;;1.60;;
47483;SDS011;54076;50.322;18.650;2023-07-31T06:03:31;3.80;;;1.50;;
47483;SDS011;54076;50.322;18.650;2023-07-31T06:08:31;5.40;;;1.60;;
47483;SDS011;54076;50.322;18.650;2023-07-31T06:13:33;6.00;;;1.80;;
47483;SDS011;54076;50.322;18.650;2023-07-31T06:18:34;5.70;;;1.60;;
47483;SDS011;54076;50.322;18.650;2023-07-31T06:23:35;5.10;;;1.80;;
47483;SDS011;54076;50.322;18.650;2023-07-31T06:28:36;5.40;;;1.70;;
47483;SDS011;54076;50.322;18.650;2023-07-31T06:33:37;9.20;;;1.80;;
47483;SDS011;54076;50.322;18.650;2023-07-31T06:38:38;7.30;;;3.60;;
47483;SDS011;54076;50.322;18.650;2023-07-31T06:43:38;4.10;;;1.60;;
47483;SDS011;54076;50.322;18.650;2023-07-31T06:48:39;7.10;;;1.60;;
47483;SDS011;54076;50.322;18.650;2023-07-31T06:53:40;5.90;;;1.90;;
47483;SDS011;54076;50.322;18.650;2023-07-31T06:58:42;4.90;;;1.50;;
47483;SDS011;54076;50.322;18.650;2023-07-31T07:03:42;7.10;;;1.90;;
47483;SDS011;54076;50.322;18.650;2023-07-31T07:08:43;8.60;;;1.70;;
47483;SDS011;54076;50.322;18.650;2023-07-31T07:13:44;5.40;;;1.60;;
47483;SDS011;54076;50.322;18.650;2023-07-31T07:18:45;5.00;;;1.80;;
47483;SDS011;54076;50.322;18.650;2023-07-31T07:23:46;6.40;;;2.20;;
47483;SDS011;54076;50.322;18.650;2023-07-31T07:28:47;8.50;;;1.90;;
47483;SDS011;54076;50.322;18.650;2023-07-31T07:33:47;5.50;;;1.60;;
47483;SDS011;54076;50.322;18.650;2023-07-31T07:38:48;10.20;;;2.40;;
47483;SDS011;54076;50.322;18.650;2023-07-31T07:43:49;7.40;;;1.90;;
47483;SDS011;54076;50.322;18.650;2023-07-31T07:48:50;4.30;;;1.60;;
47483;SDS011;54076;50.322;18.650;2023-07-31T07:53:51;6.60;;;1.60;;
47483;SDS011;54076;50.322;18.650;2023-07-31T07:58:52;4.90;;;1.60;;
47483;SDS011;54076;50.322;18.650;2023-07-31T08:03:54;5.40;;;1.80;;
47483;SDS011;54076;50.322;18.650;2023-07-31T08:08:55;5.20;;;2.00;;
47483;SDS011;54076;50.322;18.650;2023-07-31T08:13:56;4.80;;;1.60;;
47483;SDS011;54076;50.322;18.650;2023-07-31T08:18:57;7.60;;;2.30;;
47483;SDS011;54076;50.322;18.650;2023-07-31T08:23:58;4.80;;;1.70;;
47483;SDS011;54076;50.322;18.650;2023-07-31T08:28:59;6.30;;;1.90;;
47483;SDS011;54076;50.322;18.650;2023-07-31T08:34:00;8.10;;;2.10;;
47483;SDS011;54076;50.322;18.650;2023-07-31T08:39:01;4.70;;;1.50;;
47483;SDS011;54076;50.322;18.650;2023-07-31T08:44:02;5.30;;;1.70;;
47483;SDS011;54076;50.322;18.650;2023-07-31T08:49:04;7.40;;;2.10;;
47483;SDS011;54076;50.322;18.650;2023-07-31T08:54:06;5.20;;;1.80;;
47483;SDS011;54076;50.322;18.650;2023-07-31T08:59:07;5.10;;;1.80;;
47483;SDS011;54076;50.322;18.650;2023-07-31T09:04:09;4.90;;;1.60;;
47483;SDS011;54076;50.322;18.650;2023-07-31T09:09:13;5.20;;;1.50;;
47483;SDS011;54076;50.322;18.650;2023-07-31T09:14:14;6.50;;;1.70;;
47483;SDS011;54076;50.322;18.650;2023-07-31T09:19:16;12.40;;;4.40;;
47483;SDS011;54076;50.322;18.650;2023-07-31T09:24:29;4.90;;;1.80;;
47483;SDS011;54076;50.322;18.650;2023-07-31T09:29:32;6.30;;;2.00;;
47483;SDS011;54076;50.322;18.650;2023-07-31T09:34:37;6.30;;;1.80;;
47483;SDS011;54076;50.322;18.650;2023-07-31T09:39:48;5.30;;;1.70;;
47483;SDS011;54076;50.322;18.650;2023-07-31T09:44:55;6.20;;;1.70;;
47483;SDS011;54076;50.322;18.650;2023-07-31T09:50:07;4.70;;;1.90;;
47483;SDS011;54076;50.322;18.650;2023-07-31T09:55:10;12.80;;;2.40;;
47483;SDS011;54076;50.322;18.650;2023-07-31T10:00:12;5.00;;;1.70;;
47483;SDS011;54076;50.322;18.650;2023-07-31T10:05:15;5.90;;;2.20;;
47483;SDS011;54076;50.322;18.650;2023-07-31T10:10:20;6.40;;;1.90;;
47483;SDS011;54076;50.322;18.650;2023-07-31T10:15:25;8.20;;;1.70;;
47483;SDS011;54076;50.322;18.650;2023-07-31T10:20:26;4.70;;;1.50;;
47483;SDS011;54076;50.322;18.650;2023-07-31T10:25:29;5.20;;;1.70;;
47483;SDS011;54076;50.322;18.650;2023-07-31T10:30:32;4.70;;;1.50;;
47483;SDS011;54076;50.322;18.650;2023-07-31T10:35:35;7.80;;;2.00;;
47483;SDS011;54076;50.322;18.650;2023-07-31T10:40:36;7.00;;;1.50;;
47483;SDS011;54076;50.322;18.650;2023-07-31T10:45:39;3.90;;;1.50;;
47483;SDS011;54076;50.322;18.650;2023-07-31T10:50:52;6.70;;;1.60;;
47483;SDS011;54076;50.322;18.650;2023-07-31T10:56:03;6.00;;;1.60;;
47483;SDS011;54076;50.322;18.650;2023-07-31T11:01:05;6.80;;;1.90;;
47483;SDS011;54076;50.322;18.650;2023-07-31T11:06:07;6.00;;;1.60;;
47483;SDS011;54076;50.322;18.650;2023-07-31T11:11:09;4.40;;;1.70;;
47483;SDS011;54076;50.322;18.650;2023-07-31T11:16:12;3.80;;;1.60;;
47483;SDS011;54076;50.322;18.650;2023-07-31T11:21:15;4.60;;;1.60;;
47483;SDS011;54076;50.322;18.650;2023-07-31T11:26:18;4.60;;;1.60;;
47483;SDS011;54076;50.322;18.650;2023-07-31T11:31:19;4.10;;;1.70;;
47483;SDS011;54076;50.322;18.650;2023-07-31T11:36:20;7.40;;;1.70;;
47483;SDS011;54076;50.322;18.650;2023-07-31T11:41:21;8.20;;;1.80;;
47483;SDS011;54076;50.322;18.650;2023-07-31T11:46:22;11.30;;;2.50;;
47483;SDS011;54076;50.322;18.650;2023-07-31T11:51:23;5.50;;;2.10;;
47483;SDS011;54076;50.322;18.650;2023-07-31T11:56:24;8.90;;;3.00;;
47483;SDS011;54076;50.322;18.650;2023-07-31T12:01:26;5.50;;;1.60;;
47483;SDS011;54076;50.322;18.650;2023-07-31T12:06:35;4.50;;;1.60;;
47483;SDS011;54076;50.322;18.650;2023-07-31T12:11:46;7.60;;;1.60;;
47483;SDS011;54076;50.322;18.650;2023-07-31T12:16:48;5.30;;;1.70;;
47483;SDS011;54076;50.322;18.650;2023-07-31T12:21:58;5.60;;;1.50;;
47483;SDS011;54076;50.322;18.650;2023-07-31T12:27:00;13.50;;;1.60;;
47483;SDS011;54076;50.322;18.650;2023-07-31T12:32:22;4.80;;;1.30;;
47483;SDS011;54076;50.322;18.650;2023-07-31T12:37:25;3.80;;;1.20;;
47483;SDS011;54076;50.322;18.650;2023-07-31T12:42:27;4.40;;;1.60;;
47483;SDS011;54076;50.322;18.650;2023-07-31T12:47:27;4.90;;;1.50;;
47483;SDS011;54076;50.322;18.650;2023-07-31T12:52:28;4.40;;;1.60;;
47483;SDS011;54076;50.322;18.650;2023-07-31T12:57:29;4.80;;;1.50;;
47483;SDS011;54076;50.322;18.650;2023-07-31T13:02:31;4.30;;;1.30;;
47483;SDS011;54076;50.322;18.650;2023-07-31T13:07:31;4.80;;;1.20;;
47483;SDS011;54076;50.322;18.650;2023-07-31T13:12:32;5.30;;;2.00;;
47483;SDS011;54076;50.322;18.650;2023-07-31T13:17:35;5.30;;;1.50;;
47483;SDS011;54076;50.322;18.650;2023-07-31T13:22:36;7.60;;;1.90;;
47483;SDS011;54076;50.322;18.650;2023-07-31T13:27:37;4.70;;;1.50;;
47483;SDS011;54076;50.322;18.650;2023-07-31T13:32:38;7.60;;;2.00;;
47483;SDS011;54076;50.322;18.650;2023-07-31T13:37:39;6.10;;;1.50;;
47483;SDS011;54076;50.322;18.650;2023-07-31T13:42:40;3.60;;;1.10;;
47483;SDS011;54076;50.322;18.650;2023-07-31T13:47:41;6.40;;;1.10;;
47483;SDS011;54076;50.322;18.650;2023-07-31T13:52:42;4.20;;;1.30;;
47483;SDS011;54076;50.322;18.650;2023-07-31T13:57:43;9.20;;;1.20;;
47483;SDS011;54076;50.322;18.650;2023-07-31T14:02:44;5.10;;;1.30;;
47483;SDS011;54076;50.322;18.650;2023-07-31T14:07:44;3.50;;;1.00;;
47483;SDS011;54076;50.322;18.650;2023-07-31T14:12:46;3.20;;;0.90;;
47483;SDS011;54076;50.322;18.650;2023-07-31T14:17:47;4.20;;;1.00;;
47483;SDS011;54076;50.322;18.650;2023-07-31T14:22:47;2.90;;;0.90;;
47483;SDS011;54076;50.322;18.650;2023-07-31T14:27:48;9.20;;;3.90;;
47483;SDS011;54076;50.322;18.650;2023-07-31T14:32:49;3.30;;;0.80;;
47483;SDS011;54076;50.322;18.650;2023-07-31T14:37:50;3.40;;;0.60;;
47483;SDS011;54076;50.322;18.650;2023-07-31T14:42:51;3.10;;;0.80;;
47483;SDS011;54076;50.322;18.650;2023-07-31T14:47:52;3.10;;;0.90;;
47483;SDS011;54076;50.322;18.650;2023-07-31T14:52:53;4.80;;;1.00;;
47483;SDS011;54076;50.322;18.650;2023-07-31T14:57:53;3.40;;;1.10;;
47483;SDS011;54076;50.322;18.650;2023-07-31T15:02:54;4.10;;;0.90;;
47483;SDS011;54076;50.322;18.650;2023-07-31T15:07:55;3.70;;;1.00;;
47483;SDS011;54076;50.322;18.650;2023-07-31T15:12:56;2.80;;;0.90;;
47483;SDS011;54076;50.322;18.650;2023-07-31T15:17:57;4.80;;;1.00;;
47483;SDS011;54076;50.322;18.650;2023-07-31T15:22:58;6.20;;;1.30;;
47483;SDS011;54076;50.322;18.650;2023-07-31T15:27:59;4.20;;;1.40;;
47483;SDS011;54076;50.322;18.650;2023-07-31T15:33:00;3.10;;;0.90;;
47483;SDS011;54076;50.322;18.650;2023-07-31T15:38:00;4.10;;;1.40;;
47483;SDS011;54076;50.322;18.650;2023-07-31T15:43:01;6.50;;;1.90;;
47483;SDS011;54076;50.322;18.650;2023-07-31T15:48:03;3.70;;;1.20;;
47483;SDS011;54076;50.322;18.650;2023-07-31T15:53:04;4.10;;;1.40;;
47483;SDS011;54076;50.322;18.650;2023-07-31T15:58:05;4.60;;;1.60;;
47483;SDS011;54076;50.322;18.650;2023-07-31T16:03:06;4.70;;;1.50;;
47483;SDS011;54076;50.322;18.650;2023-07-31T16:08:07;4.90;;;1.20;;
47483;SDS011;54076;50.322;18.650;2023-07-31T16:13:08;5.40;;;1.50;;
47483;SDS011;54076;50.322;18.650;2023-07-31T16:18:09;6.10;;;1.70;;
47483;SDS011;54076;50.322;18.650;2023-07-31T16:23:10;4.80;;;1.40;;
47483;SDS011;54076;50.322;18.650;2023-07-31T16:28:11;5.40;;;1.50;;
47483;SDS011;54076;50.322;18.650;2023-07-31T16:33:12;6.00;;;1.60;;
47483;SDS011;54076;50.322;18.650;2023-07-31T16:38:13;4.40;;;1.30;;
47483;SDS011;54076;50.322;18.650;2023-07-31T16:43:14;4.70;;;1.80;;
47483;SDS011;54076;50.322;18.650;2023-07-31T16:48:15;3.80;;;1.40;;
47483;SDS011;54076;50.322;18.650;2023-07-31T16:53:16;3.70;;;1.40;;
47483;SDS011;54076;50.322;18.650;2023-07-31T16:58:17;5.80;;;1.50;;
47483;SDS011;54076;50.322;18.650;2023-07-31T17:03:18;7.10;;;2.70;;
47483;SDS011;54076;50.322;18.650;2023-07-31T17:08:19;6.10;;;2.20;;
47483;SDS011;54076;50.322;18.650;2023-07-31T17:13:20;5.10;;;1.50;;
47483;SDS011;54076;50.322;18.650;2023-07-31T17:18:21;6.10;;;1.80;;
47483;SDS011;54076;50.322;18.650;2023-07-31T17:23:22;5.70;;;1.80;;
47483;SDS011;54076;50.322;18.650;2023-07-31T17:28:23;13.70;;;2.40;;
47483;SDS011;54076;50.322;18.650;2023-07-31T17:33:24;5.20;;;1.50;;
47483;SDS011;54076;50.322;18.650;2023-07-31T17:38:25;8.70;;;1.80;;
47483;SDS011;54076;50.322;18.650;2023-07-31T17:43:26;7.30;;;2.00;;
47483;SDS011;54076;50.322;18.650;2023-07-31T17:48:27;4.90;;;1.50;;
47483;SDS011;54076;50.322;18.650;2023-07-31T17:53:28;4.20;;;1.60;;
47483;SDS011;54076;50.322;18.650;2023-07-31T17:58:28;4.90;;;1.30;;
47483;SDS011;54076;50.322;18.650;2023-07-31T18:03:29;6.10;;;1.60;;
47483;SDS011;54076;50.322;18.650;2023-07-31T18:08:30;7.00;;;3.10;;
47483;SDS011;54076;50.322;18.650;2023-07-31T18:13:31;5.00;;;1.90;;
47483;SDS011;54076;50.322;18.650;2023-07-31T18:18:32;5.40;;;1.50;;
47483;SDS011;54076;50.322;18.650;2023-07-31T18:23:33;4.50;;;1.70;;
47483;SDS011;54076;50.322;18.650;2023-07-31T18:28:34;5.70;;;1.60;;
47483;SDS011;54076;50.322;18.650;2023-07-31T18:33:35;6.10;;;1.70;;
47483;SDS011;54076;50.322;18.650;2023-07-31T18:38:36;5.50;;;1.50;;
47483;SDS011;54076;50.322;18.650;2023-07-31T18:43:36;5.00;;;1.30;;
47483;SDS011;54076;50.322;18.650;2023-07-31T18:48:38;6.60;;;1.50;;
47483;SDS011;54076;50.322;18.650;2023-07-31T18:53:39;6.00;;;1.50;;
47483;SDS011;54076;50.322;18.650;2023-07-31T18:58:39;4.40;;;1.70;;
47483;SDS011;54076;50.322;18.650;2023-07-31T19:03:40;7.00;;;2.00;;
47483;SDS011;54076;50.322;18.650;2023-07-31T19:08:41;6.10;;;2.10;;
47483;SDS011;54076;50.322;18.650;2023-07-31T19:13:43;4.80;;;1.40;;
47483;SDS011;54076;50.322;18.650;2023-07-31T19:18:45;4.80;;;1.80;;
47483;SDS011;54076;50.322;18.650;2023-07-31T19:23:46;5.40;;;1.70;;
47483;SDS011;54076;50.322;18.650;2023-07-31T19:28:47;6.50;;;1.70;;
47483;SDS011;54076;50.322;18.650;2023-07-31T19:33:50;5.80;;;1.90;;
47483;SDS011;54076;50.322;18.650;2023-07-31T19:38:51;6.00;;;1.90;;
47483;SDS011;54076;50.322;18.650;2023-07-31T19:43:52;6.00;;;2.30;;
47483;SDS011;54076;50.322;18.650;2023-07-31T19:48:53;5.30;;;2.30;;
47483;SDS011;54076;50.322;18.650;2023-07-31T19:53:54;5.00;;;2.20;;
47483;SDS011;54076;50.322;18.650;2023-07-31T19:58:55;5.50;;;1.90;;
47483;SDS011;54076;50.322;18.650;2023-07-31T20:03:56;15.70;;;3.00;;
47483;SDS011;54076;50.322;18.650;2023-07-31T20:08:57;5.80;;;2.20;;
47483;SDS011;54076;50.322;18.650;2023-07-31T20:14:04;6.10;;;2.00;;
47483;SDS011;54076;50.322;18.650;2023-07-31T20:19:06;5.90;;;2.30;;
47483;SDS011;54076;50.322;18.650;2023-07-31T20:24:08;7.60;;;2.10;;
47483;SDS011;54076;50.322;18.650;2023-07-31T20:29:10;7.40;;;2.30;;
47483;SDS011;54076;50.322;18.650;2023-07-31T20:34:11;7.30;;;2.40;;
47483;SDS011;54076;50.322;18.650;2023-07-31T20:39:12;7.50;;;2.80;;
47483;SDS011;54076;50.322;18.650;2023-07-31T20:44:13;9.90;;;2.70;;
47483;SDS011;54076;50.322;18.650;2023-07-31T20:49:14;9.10;;;2.90;;
47483;SDS011;54076;50.322;18.650;2023-07-31T20:54:15;8.80;;;3.10;;
47483;SDS011;54076;50.322;18.650;2023-07-31T20:59:17;11.90;;;3.50;;
47483;SDS011;54076;50.322;18.650;2023-07-31T21:04:19;8.60;;;3.10;;
47483;SDS011;54076;50.322;18.650;2023-07-31T21:09:20;6.90;;;3.00;;
47483;SDS011;54076;50.322;18.650;2023-07-31T21:14:21;8.10;;;3.30;;
47483;SDS011;54076;50.322;18.650;2023-07-31T21:19:22;8.40;;;3.80;;
47483;SDS011;54076;50.322;18.650;2023-07-31T21:24:23;9.10;;;3.80;;
47483;SDS011;54076;50.322;18.650;2023-07-31T21:29:23;12.40;;;3.50;;
47483;SDS011;54076;50.322;18.650;2023-07-31T21:34:26;7.80;;;3.20;;
47483;SDS011;54076;50.322;18.650;2023-07-31T21:39:28;9.90;;;3.70;;
47483;SDS011;54076;50.322;18.650;2023-07-31T21:44:29;8.70;;;3.10;;
47483;SDS011;54076;50.322;18.650;2023-07-31T21:49:30;9.60;;;3.00;;
47483;SDS011;54076;50.322;18.650;2023-07-31T21:54:30;10.20;;;3.30;;
47483;SDS011;54076;50.322;18.650;2023-07-31T21:59:31;12.80;;;3.10;;
47483;SDS011;54076;50.322;18.650;2023-07-31T22:04:32;10.90;;;3.00;;
47483;SDS011;54076;50.322;18.650;2023-07-31T22:09:33;13.10;;;3.50;;
47483;SDS011;54076;50.322;18.650;2023-07-31T22:14:34;7.20;;;3.40;;
47483;SDS011;54076;50.322;18.650;2023-07-31T22:19:35;7.90;;;3.30;;
47483;SDS011;54076;50.322;18.650;2023-07-31T22:24:36;11.80;;;4.30;;
47483;SDS011;54076;50.322;18.650;2023-07-31T22:29:38;7.70;;;3.40;;
47483;SDS011;54076;50.322;18.650;2023-07-31T22:34:39;9.20;;;3.40;;
47483;SDS011;54076;50.322;18.650;2023-07-31T22:39:40;8.00;;;3.40;;
47483;SDS011;54076;50.322;18.650;2023-07-31T22:44:41;9.20;;;3.50;;
47483;SDS011;54076;50.322;18.650;2023-07-31T22:49:41;9.20;;;3.40;;
47483;SDS011;54076;50.322;18.650;2023-07-31T22:54:43;7.00;;;3.20;;
47483;SDS011;54076;50.322;18.650;2023-07-31T22:59:43;8.30;;;3.20;;
47483;SDS011;54076;50.322;18.650;2023-07-31T23:04:44;10.00;;;3.40;;
47483;SDS011;54076;50.322;18.650;2023-07-31T23:09:45;9.30;;;3.40;;
47483;SDS011;54076;50.322;18.650;2023-07-31T23:14:46;8.00;;;3.60;;
47483;SDS011;54076;50.322;18.650;2023-07-31T23:19:47;11.30;;;3.00;;
47483;SDS011;54076;50.322;18.650;2023-07-31T23:24:48;7.70;;;2.90;;
47483;SDS011;54076;50.322;18.650;2023-07-31T23:29:49;8.70;;;3.20;;
47483;SDS011;54076;50.322;18.650;2023-07-31T23:34:50;9.20;;;3.30;;
47483;SDS011;54076;50.322;18.650;2023-07-31T23:39:51;10.00;;;3.50;;
47483;SDS011;54076;50.322;18.650;2023-07-31T23:44:51;8.50;;;3.30;;
47483;SDS011;54076;50.322;18.650;2023-07-31T23:49:52;9.20;;;2.80;;
47483;SDS011;54076;50.322;18.650;2023-07-31T23:54:53;8.70;;;3.30;;
47483;SDS011;54076;50.322;18.650;2023-07-31T23:59:55;11.60;;;3.80;;
